createdAt,value
2019-05-16T00:00:40.431Z,98523.26
2019-05-16T00:01:48.880Z,98524.94
2019-05-16T00:02:58.884Z,98517.34
2019-05-16T00:04:08.778Z,98518.18
2019-05-16T00:05:18.763Z,98521.05
2019-05-16T00:06:28.431Z,98517.94
2019-05-16T00:07:39.012Z,98528.58
2019-05-16T00:08:48.129Z,98538.24
2019-05-16T00:09:59.034Z,98548.89
2019-05-16T00:11:08.592Z,98550.16
2019-05-16T00:12:18.376Z,98553.44
2019-05-16T00:13:28.055Z,98553.69
2019-05-16T00:14:38.622Z,98558.38
2019-05-16T00:15:48.098Z,98551.91
2019-05-16T00:16:58.902Z,98557.16
2019-05-16T00:18:08.758Z,98558.66
2019-05-16T00:19:18.123Z,98557.41
2019-05-16T00:20:28.517Z,98559.29
2019-05-16T00:21:38.312Z,98556.38
2019-05-16T00:22:48.214Z,98552.88
2019-05-16T00:23:58.599Z,98551.30
2019-05-16T00:25:08.655Z,98551.91
2019-05-16T00:26:19.744Z,98546.45
2019-05-16T00:27:28.065Z,98560.13
2019-05-16T00:28:37.967Z,98554.08
2019-05-16T00:29:48.613Z,98550.50
2019-05-16T00:30:59.149Z,98548.19
2019-05-16T00:32:08.599Z,98545.87
2019-05-16T00:33:18.381Z,98553.16
2019-05-16T00:34:27.997Z,98553.37
2019-05-16T00:35:38.886Z,98548.19
2019-05-16T00:36:48.652Z,98547.48
2019-05-16T00:37:59.043Z,98542.41
2019-05-16T00:39:08.343Z,98544.02
2019-05-16T00:40:18.898Z,98537.89
2019-05-16T00:41:28.321Z,98540.90
2019-05-16T00:42:39.188Z,98538.73
2019-05-16T00:43:48.612Z,98541.18
2019-05-16T00:44:58.311Z,98543.08
2019-05-16T00:46:08.226Z,98547.77
2019-05-16T00:47:17.822Z,98550.91
2019-05-16T00:48:26.189Z,98550.80
2019-05-16T00:49:34.908Z,98555.50
2019-05-16T00:50:42.832Z,98546.75
2019-05-16T00:51:51.782Z,98547.48
2019-05-16T00:52:59.911Z,98553.30
2019-05-16T00:54:08.553Z,98543.88
2019-05-16T00:55:17.987Z,98544.51
2019-05-16T00:56:29.046Z,98539.41
2019-05-16T00:57:38.827Z,98546.65
2019-05-16T00:58:48.997Z,98544.59
2019-05-16T00:59:59.162Z,98543.74
2019-05-16T01:01:08.682Z,98541.19
2019-05-16T01:02:18.148Z,98543.04
2019-05-16T01:03:28.939Z,98545.32
2019-05-16T01:04:38.127Z,98542.52
2019-05-16T01:05:48.092Z,98540.42
2019-05-16T01:06:58.486Z,98544.27
2019-05-16T01:08:07.852Z,98538.11
2019-05-16T01:09:16.290Z,98545.61
2019-05-16T01:10:25.016Z,98542.73
2019-05-16T01:11:33.090Z,98540.28
2019-05-16T01:12:41.409Z,98534.61
2019-05-16T01:13:49.306Z,98534.27
2019-05-16T01:14:58.435Z,98531.46
2019-05-16T01:16:08.631Z,98535.59
2019-05-16T01:17:18.242Z,98534.89
2019-05-16T01:18:28.706Z,98528.31
2019-05-16T01:19:38.018Z,98523.73
2019-05-16T01:20:48.118Z,98522.75
2019-05-16T01:21:58.824Z,98518.41
2019-05-16T01:23:06.037Z,98520.58
2019-05-16T01:24:14.730Z,98519.59
2019-05-16T01:25:22.872Z,98519.81
2019-05-16T01:26:31.522Z,98515.68
2019-05-16T01:27:39.779Z,98519.67
2019-05-16T01:28:48.621Z,98508.92
2019-05-16T01:29:58.384Z,98509.90
2019-05-16T01:31:08.563Z,98506.86
2019-05-16T01:32:18.999Z,98502.52
2019-05-16T01:33:28.074Z,98500.14
2019-05-16T01:34:37.806Z,98502.80
2019-05-16T01:35:47.794Z,98507.70
2019-05-16T01:36:56.073Z,98506.51
2019-05-16T01:38:04.738Z,98509.66
2019-05-16T01:39:12.640Z,98510.84
2019-05-16T01:40:21.359Z,98509.17
2019-05-16T01:41:29.593Z,98505.45
2019-05-16T01:42:38.864Z,98505.17
2019-05-16T01:43:48.375Z,98506.44
2019-05-16T01:44:57.826Z,98512.31
2019-05-16T01:46:08.267Z,98509.41
2019-05-16T01:47:18.309Z,98511.83
2019-05-16T01:48:28.974Z,98512.95
2019-05-16T01:49:38.101Z,98506.78
2019-05-16T01:50:48.156Z,98504.02
2019-05-16T01:51:57.858Z,98501.81
2019-05-16T01:53:08.442Z,98504.12
2019-05-16T01:54:17.968Z,98506.92
2019-05-16T01:55:28.463Z,98503.78
2019-05-16T01:56:38.584Z,98500.63
2019-05-16T01:57:48.127Z,98500.14
2019-05-16T01:58:58.293Z,98502.16
2019-05-16T02:00:08.446Z,98496.70
2019-05-16T02:01:19.011Z,98498.17
2019-05-16T02:02:28.900Z,98504.12
2019-05-16T02:03:38.760Z,98505.22
2019-05-16T02:04:48.496Z,98509.00
2019-05-16T02:05:58.550Z,98510.19
2019-05-16T02:07:08.561Z,98507.87
2019-05-16T02:08:18.175Z,98498.28
2019-05-16T02:09:28.053Z,98512.98
2019-05-16T02:10:37.873Z,98512.00
2019-05-16T02:11:48.019Z,98506.19
2019-05-16T02:12:58.020Z,98506.96
2019-05-16T02:14:05.688Z,98508.16
2019-05-16T02:15:15.586Z,98511.66
2019-05-16T02:16:23.647Z,98506.09
2019-05-16T02:17:32.244Z,98509.48
2019-05-16T02:18:40.050Z,98508.08
2019-05-16T02:19:48.937Z,98506.48
2019-05-16T02:21:00.939Z,98506.69
2019-05-16T02:22:08.880Z,98505.63
2019-05-16T02:23:18.797Z,98505.28
2019-05-16T02:24:28.486Z,98500.95
2019-05-16T02:25:40.527Z,98503.85
2019-05-16T02:26:49.284Z,98503.11
2019-05-16T02:27:58.967Z,98501.99
2019-05-16T02:29:13.354Z,98496.19
2019-05-16T02:30:21.361Z,98494.50
2019-05-16T02:31:31.122Z,98498.39
2019-05-16T02:32:37.167Z,98495.38
2019-05-16T02:33:46.161Z,98498.18
2019-05-16T02:34:54.378Z,98496.95
2019-05-16T02:36:03.209Z,98501.89
2019-05-16T02:37:23.517Z,98494.64
2019-05-16T02:38:21.637Z,98496.67
2019-05-16T02:39:30.547Z,98497.86
2019-05-16T02:40:41.714Z,98506.33
2019-05-16T02:41:52.035Z,98506.69
2019-05-16T02:43:02.134Z,98506.44
2019-05-16T02:44:12.124Z,98511.76
2019-05-16T02:45:24.633Z,98510.42
2019-05-16T02:46:32.008Z,98512.45
2019-05-16T02:47:42.422Z,98511.76
2019-05-16T02:48:51.822Z,98509.80
2019-05-16T02:50:01.311Z,98516.59
2019-05-16T02:51:11.062Z,98518.12
2019-05-16T02:52:21.784Z,98510.98
2019-05-16T02:53:31.048Z,98512.25
2019-05-16T02:54:41.136Z,98514.06
2019-05-16T02:55:51.536Z,98511.86
2019-05-16T02:57:01.455Z,98509.63
2019-05-16T02:58:11.489Z,98510.46
2019-05-16T02:59:20.614Z,98518.66
2019-05-16T03:00:42.604Z,98517.60
2019-05-16T03:01:52.052Z,98516.83
2019-05-16T03:03:01.164Z,98516.73
2019-05-16T03:04:11.155Z,98511.76
2019-05-16T03:05:20.856Z,98518.97
2019-05-16T03:06:32.072Z,98518.83
2019-05-16T03:07:47.436Z,98520.78
2019-05-16T03:08:56.122Z,98523.20
2019-05-16T03:10:07.251Z,98523.45
2019-05-16T03:11:16.841Z,98518.16
2019-05-16T03:12:30.649Z,98513.47
2019-05-16T03:13:42.307Z,98518.66
2019-05-16T03:14:54.626Z,98515.92
2019-05-16T03:16:05.551Z,98516.80
2019-05-16T03:17:21.189Z,98525.27
2019-05-16T03:18:31.270Z,98528.27
2019-05-16T03:19:41.780Z,98532.75
2019-05-16T03:20:53.425Z,98530.69
2019-05-16T03:22:03.135Z,98525.41
2019-05-16T03:23:11.922Z,98526.31
2019-05-16T03:24:20.651Z,98531.88
2019-05-16T03:25:30.979Z,98533.56
2019-05-16T03:26:40.853Z,98533.34
2019-05-16T03:27:51.264Z,98530.80
2019-05-16T03:29:01.030Z,98527.05
2019-05-16T03:30:15.584Z,98536.08
2019-05-16T03:31:24.678Z,98532.38
2019-05-16T03:32:34.027Z,98534.78
2019-05-16T03:33:48.940Z,98534.30
2019-05-16T03:34:54.807Z,98535.28
2019-05-16T03:36:04.705Z,98532.48
2019-05-16T03:37:14.252Z,98534.71
2019-05-16T03:38:21.247Z,98535.06
2019-05-16T03:39:31.359Z,98530.37
2019-05-16T03:40:41.279Z,98533.28
2019-05-16T03:41:50.673Z,98537.75
2019-05-16T03:43:01.431Z,98532.65
2019-05-16T03:44:11.283Z,98538.59
2019-05-16T03:45:21.161Z,98537.89
2019-05-16T03:46:30.964Z,98531.38
2019-05-16T03:47:42.337Z,98536.10
2019-05-16T03:48:51.936Z,98535.75
2019-05-16T03:50:00.588Z,98534.77
2019-05-16T03:51:11.429Z,98542.37
2019-05-16T03:52:20.755Z,98539.22
2019-05-16T03:53:31.771Z,98537.78
2019-05-16T03:54:42.038Z,98539.92
2019-05-16T03:55:51.757Z,98541.11
2019-05-16T03:57:00.539Z,98538.24
2019-05-16T03:58:11.619Z,98545.24
2019-05-16T03:59:21.589Z,98543.67
2019-05-16T04:00:53.194Z,98540.27
2019-05-16T04:02:01.714Z,98546.58
2019-05-16T04:03:11.651Z,98546.08
2019-05-16T04:04:20.930Z,98547.88
2019-05-16T04:05:31.790Z,98548.36
2019-05-16T04:06:41.580Z,98548.92
2019-05-16T04:07:51.579Z,98547.27
2019-05-16T04:09:01.489Z,98550.88
2019-05-16T04:10:11.242Z,98547.38
2019-05-16T04:11:23.048Z,98544.38
2019-05-16T04:12:30.915Z,98551.72
2019-05-16T04:13:41.097Z,98550.64
2019-05-16T04:14:51.286Z,98557.39
2019-05-16T04:16:01.384Z,98553.16
2019-05-16T04:17:10.855Z,98551.09
2019-05-16T04:18:21.938Z,98557.50
2019-05-16T04:19:31.380Z,98557.50
2019-05-16T04:20:40.729Z,98556.38
2019-05-16T04:21:51.063Z,98546.72
2019-05-16T04:23:01.130Z,98557.36
2019-05-16T04:24:12.170Z,98557.81
2019-05-16T04:25:21.621Z,98558.06
2019-05-16T04:26:31.467Z,98558.20
2019-05-16T04:27:41.698Z,98555.50
2019-05-16T04:28:51.603Z,98556.80
2019-05-16T04:30:01.505Z,98566.81
2019-05-16T04:31:11.087Z,98561.08
2019-05-16T04:32:20.852Z,98565.27
2019-05-16T04:33:31.142Z,98567.02
2019-05-16T04:34:41.756Z,98565.72
2019-05-16T04:35:52.432Z,98572.02
2019-05-16T04:37:01.198Z,98567.19
2019-05-16T04:38:11.552Z,98568.93
2019-05-16T04:39:20.879Z,98570.16
2019-05-16T04:40:31.169Z,98572.25
2019-05-16T04:41:40.936Z,98574.91
2019-05-16T04:42:51.285Z,98579.73
2019-05-16T04:44:04.538Z,98578.76
2019-05-16T04:45:12.249Z,98577.45
2019-05-16T04:46:21.608Z,98571.76
2019-05-16T04:47:31.756Z,98571.20
2019-05-16T04:48:41.740Z,98578.45
2019-05-16T04:49:51.893Z,98573.00
2019-05-16T04:51:01.358Z,98580.28
2019-05-16T04:52:13.113Z,98574.47
2019-05-16T04:53:22.424Z,98575.80
2019-05-16T04:54:31.326Z,98566.70
2019-05-16T04:55:41.968Z,98572.30
2019-05-16T04:56:51.286Z,98570.75
2019-05-16T04:58:01.431Z,98566.52
2019-05-16T04:59:16.172Z,98563.16
2019-05-16T05:00:21.205Z,98565.33
2019-05-16T05:01:30.879Z,98571.13
2019-05-16T05:02:41.773Z,98562.17
2019-05-16T05:04:04.896Z,98563.02
2019-05-16T05:05:01.251Z,98570.37
2019-05-16T05:06:11.371Z,98567.63
2019-05-16T05:07:20.686Z,98561.55
2019-05-16T05:08:30.719Z,98567.92
2019-05-16T05:09:40.930Z,98567.05
2019-05-16T05:10:51.499Z,98567.16
2019-05-16T05:12:04.113Z,98560.02
2019-05-16T05:13:11.010Z,98558.34
2019-05-16T05:14:21.170Z,98556.48
2019-05-16T05:15:30.667Z,98557.68
2019-05-16T05:16:41.103Z,98555.58
2019-05-16T05:17:50.270Z,98563.48
2019-05-16T05:19:00.340Z,98564.05
2019-05-16T05:20:12.511Z,98568.15
2019-05-16T05:21:21.106Z,98561.70
2019-05-16T05:22:30.424Z,98559.54
2019-05-16T05:23:40.668Z,98567.09
2019-05-16T05:24:50.760Z,98562.72
2019-05-16T05:26:00.272Z,98564.61
2019-05-16T05:27:10.439Z,98565.69
2019-05-16T05:28:21.021Z,98567.16
2019-05-16T05:29:30.726Z,98569.05
2019-05-16T05:30:40.800Z,98568.59
2019-05-16T05:31:54.850Z,98570.69
2019-05-16T05:33:00.770Z,98563.34
2019-05-16T05:34:10.699Z,98564.88
2019-05-16T05:35:20.547Z,98561.14
2019-05-16T05:36:30.057Z,98564.98
2019-05-16T05:37:40.741Z,98561.84
2019-05-16T05:38:55.577Z,98565.17
2019-05-16T05:39:59.964Z,98566.53
2019-05-16T05:41:10.746Z,98566.28
2019-05-16T05:42:19.882Z,98572.52
2019-05-16T05:43:30.557Z,98573.29
2019-05-16T05:44:40.166Z,98578.96
2019-05-16T05:45:51.211Z,98579.53
2019-05-16T05:47:00.600Z,98583.27
2019-05-16T05:48:10.711Z,98588.95
2019-05-16T05:49:20.475Z,98591.33
2019-05-16T05:50:30.730Z,98588.56
2019-05-16T05:51:40.587Z,98588.56
2019-05-16T05:52:51.089Z,98593.39
2019-05-16T05:54:00.130Z,98595.07
2019-05-16T05:55:10.522Z,98597.28
2019-05-16T05:56:19.749Z,98594.86
2019-05-16T05:57:30.047Z,98591.30
2019-05-16T05:58:40.579Z,98589.92
2019-05-16T05:59:49.799Z,98597.63
2019-05-16T06:01:00.659Z,98601.02
2019-05-16T06:02:11.200Z,98602.78
2019-05-16T06:03:21.672Z,98598.05
2019-05-16T06:04:30.529Z,98598.27
2019-05-16T06:05:41.090Z,98605.27
2019-05-16T06:06:50.371Z,98608.77
2019-05-16T06:08:00.318Z,98611.53
2019-05-16T06:09:14.350Z,98612.59
2019-05-16T06:10:20.003Z,98613.31
2019-05-16T06:11:30.715Z,98619.24
2019-05-16T06:12:40.846Z,98614.02
2019-05-16T06:13:50.058Z,98616.30
2019-05-16T06:15:06.062Z,98619.30
2019-05-16T06:16:10.777Z,98621.06
2019-05-16T06:17:20.099Z,98619.97
2019-05-16T06:18:30.583Z,98618.64
2019-05-16T06:19:40.223Z,98619.03
2019-05-16T06:20:50.875Z,98621.44
2019-05-16T06:22:00.845Z,98627.85
2019-05-16T06:23:10.447Z,98625.99
2019-05-16T06:24:20.108Z,98628.13
2019-05-16T06:25:31.596Z,98628.58
2019-05-16T06:26:39.788Z,98624.41
2019-05-16T06:27:50.973Z,98623.77
2019-05-16T06:29:00.505Z,98626.50
2019-05-16T06:30:11.316Z,98623.79
2019-05-16T06:31:22.248Z,98628.72
2019-05-16T06:32:30.490Z,98627.10
2019-05-16T06:33:40.969Z,98625.38
2019-05-16T06:34:50.778Z,98625.67
2019-05-16T06:36:00.298Z,98625.86
2019-05-16T06:37:09.854Z,98622.42
2019-05-16T06:38:17.892Z,98619.34
2019-05-16T06:39:40.816Z,98625.66
2019-05-16T06:40:37.724Z,98618.22
2019-05-16T06:41:46.585Z,98619.00
2019-05-16T06:42:54.737Z,98622.11
2019-05-16T06:44:03.437Z,98621.17
2019-05-16T06:45:11.735Z,98621.81
2019-05-16T06:46:20.489Z,98623.00
2019-05-16T06:47:30.443Z,98622.02
2019-05-16T06:48:39.850Z,98625.17
2019-05-16T06:49:48.286Z,98622.16
2019-05-16T06:50:57.242Z,98627.14
2019-05-16T06:52:05.477Z,98623.49
2019-05-16T06:53:14.104Z,98625.91
2019-05-16T06:54:22.278Z,98627.30
2019-05-16T06:55:31.070Z,98631.98
2019-05-16T06:56:40.138Z,98631.73
2019-05-16T06:57:50.370Z,98632.22
2019-05-16T06:59:00.729Z,98632.22
2019-05-16T07:00:13.122Z,98631.23
2019-05-16T07:01:21.168Z,98632.77
2019-05-16T07:02:33.535Z,98635.23
2019-05-16T07:03:40.113Z,98633.41
2019-05-16T07:04:50.600Z,98633.61
2019-05-16T07:06:00.552Z,98629.17
2019-05-16T07:07:12.698Z,98636.91
2019-05-16T07:08:22.838Z,98630.95
2019-05-16T07:09:31.880Z,98636.97
2019-05-16T07:10:40.109Z,98637.55
2019-05-16T07:11:50.465Z,98632.83
2019-05-16T07:13:00.706Z,98636.19
2019-05-16T07:14:10.613Z,98634.50
2019-05-16T07:15:20.615Z,98637.61
2019-05-16T07:16:30.027Z,98633.80
2019-05-16T07:17:39.790Z,98637.36
2019-05-16T07:18:50.577Z,98632.54
2019-05-16T07:20:00.776Z,98635.54
2019-05-16T07:21:10.910Z,98641.31
2019-05-16T07:22:20.524Z,98638.65
2019-05-16T07:23:30.341Z,98641.03
2019-05-16T07:24:39.970Z,98637.56
2019-05-16T07:25:50.521Z,98637.37
2019-05-16T07:27:00.293Z,98635.41
2019-05-16T07:28:10.215Z,98634.30
2019-05-16T07:29:20.251Z,98631.98
2019-05-16T07:30:30.303Z,98633.81
2019-05-16T07:31:40.457Z,98626.05
2019-05-16T07:32:50.015Z,98622.40
2019-05-16T07:34:00.613Z,98626.54
2019-05-16T07:35:10.198Z,98621.90
2019-05-16T07:36:20.336Z,98617.00
2019-05-16T07:37:28.706Z,98618.12
2019-05-16T07:38:36.916Z,98622.41
2019-05-16T07:39:45.780Z,98614.68
2019-05-16T07:40:54.291Z,98614.13
2019-05-16T07:42:03.290Z,98611.50
2019-05-16T07:43:11.270Z,98610.12
2019-05-16T07:44:20.956Z,98604.91
2019-05-16T07:45:30.854Z,98603.28
2019-05-16T07:46:40.891Z,98601.80
2019-05-16T07:47:51.014Z,98609.16
2019-05-16T07:49:01.146Z,98610.19
2019-05-16T07:50:10.613Z,98605.27
2019-05-16T07:51:20.546Z,98609.62
2019-05-16T07:52:35.291Z,98617.70
2019-05-16T07:53:40.396Z,98611.03
2019-05-16T07:54:50.350Z,98612.36
2019-05-16T07:56:00.124Z,98612.36
2019-05-16T07:57:18.737Z,98611.11
2019-05-16T07:58:21.760Z,98611.45
2019-05-16T07:59:29.974Z,98606.34
2019-05-16T08:00:49.484Z,98606.69
2019-05-16T08:01:53.701Z,98604.36
2019-05-16T08:03:00.864Z,98608.51
2019-05-16T08:04:10.595Z,98602.33
2019-05-16T08:05:21.065Z,98607.17
2019-05-16T08:06:31.082Z,98607.10
2019-05-16T08:07:40.905Z,98607.37
2019-05-16T08:08:51.264Z,98608.40
2019-05-16T08:10:00.412Z,98608.89
2019-05-16T08:11:11.759Z,98601.95
2019-05-16T08:12:25.617Z,98611.83
2019-05-16T08:13:30.863Z,98601.30
2019-05-16T08:14:40.990Z,98603.11
2019-05-16T08:15:50.308Z,98607.99
2019-05-16T08:17:01.100Z,98598.15
2019-05-16T08:18:11.090Z,98603.91
2019-05-16T08:19:24.912Z,98601.42
2019-05-16T08:20:31.359Z,98606.27
2019-05-16T08:21:41.946Z,98605.52
2019-05-16T08:22:51.438Z,98600.84
2019-05-16T08:25:11.017Z,98601.18
2019-05-16T08:26:22.061Z,98607.11
2019-05-16T08:27:31.245Z,98601.67
2019-05-16T08:28:41.373Z,98596.25
2019-05-16T08:31:01.100Z,98595.37
2019-05-16T08:32:11.579Z,98597.22
2019-05-16T08:33:21.913Z,98598.33
2019-05-16T08:34:32.191Z,98603.07
2019-05-16T08:35:41.372Z,98600.45
2019-05-16T08:36:51.913Z,98598.64
2019-05-16T08:38:01.618Z,98602.86
2019-05-16T08:39:11.027Z,98602.20
2019-05-16T08:40:21.469Z,98608.22
2019-05-16T08:41:31.613Z,98605.17
2019-05-16T08:42:41.618Z,98604.80
2019-05-16T08:43:53.430Z,98602.16
2019-05-16T08:46:12.242Z,98604.22
2019-05-16T08:47:21.432Z,98607.39
2019-05-16T08:48:31.787Z,98603.22
2019-05-16T08:49:42.127Z,98599.60
2019-05-16T08:50:05.206Z,98605.78
2019-05-16T08:50:54.031Z,98602.94
2019-05-16T08:52:01.537Z,98602.66
2019-05-16T08:53:12.901Z,98593.75
2019-05-16T08:54:21.319Z,98596.43
2019-05-16T08:55:31.306Z,98594.62
2019-05-16T08:56:44.230Z,98595.30
2019-05-16T08:57:52.975Z,98595.53
2019-05-16T09:00:14.690Z,98590.97
2019-05-16T09:01:22.542Z,98591.74
2019-05-16T09:02:37.178Z,98590.13
2019-05-16T09:03:41.741Z,98581.83
2019-05-16T09:04:53.444Z,98577.72
2019-05-16T09:06:03.010Z,98574.22
2019-05-16T09:07:12.642Z,98578.82
2019-05-16T09:08:20.773Z,98579.53
2019-05-16T09:09:41.584Z,98579.06
2019-05-16T09:10:34.643Z,98591.30
2019-05-16T09:10:40.277Z,98600.53
2019-05-16T09:10:49.992Z,98581.55
2019-05-16T09:11:49.030Z,98584.05
2019-05-16T09:12:58.111Z,98582.17
2019-05-16T09:14:08.012Z,98581.33
2019-05-16T09:15:17.217Z,98589.88
2019-05-16T09:16:27.510Z,98588.88
2019-05-16T09:17:38.369Z,98588.41
2019-05-16T09:18:30.895Z,98595.31
2019-05-16T09:18:46.321Z,98578.06
2019-05-16T09:19:57.603Z,98583.52
2019-05-16T09:21:07.332Z,98577.86
2019-05-16T09:22:17.877Z,98575.75
2019-05-16T09:23:26.773Z,98581.83
2019-05-16T09:24:37.751Z,98577.49
2019-05-16T09:25:48.759Z,98584.17
2019-05-16T09:26:57.816Z,98581.70
2019-05-16T09:28:07.474Z,98579.81
2019-05-16T09:29:16.834Z,98578.45
2019-05-16T09:30:27.423Z,98578.79
2019-05-16T09:31:38.565Z,98579.27
2019-05-16T09:32:48.567Z,98576.19
2019-05-16T09:33:57.420Z,98574.81
2019-05-16T09:35:09.014Z,98573.81
2019-05-16T09:36:18.036Z,98578.44
2019-05-16T09:37:26.888Z,98571.53
2019-05-16T09:38:38.364Z,98566.22
2019-05-16T09:39:47.854Z,98571.41
2019-05-16T09:40:56.951Z,98577.16
2019-05-16T09:42:08.070Z,98574.25
2019-05-16T09:43:17.748Z,98574.42
2019-05-16T09:44:27.245Z,98572.20
2019-05-16T09:45:37.948Z,98574.21
2019-05-16T09:46:47.155Z,98574.84
2019-05-16T09:47:57.389Z,98571.67
2019-05-16T09:49:16.776Z,98573.84
2019-05-16T09:50:18.432Z,98573.01
2019-05-16T09:51:27.316Z,98573.05
2019-05-16T09:52:36.533Z,98572.88
2019-05-16T09:53:47.009Z,98567.89
2019-05-16T09:54:57.525Z,98566.22
2019-05-16T09:56:07.054Z,98568.66
2019-05-16T09:57:17.463Z,98563.99
2019-05-16T09:58:27.554Z,98562.70
2019-05-16T09:59:37.055Z,98562.25
2019-05-16T10:00:47.250Z,98566.33
2019-05-16T10:01:57.210Z,98564.37
2019-05-16T10:03:07.124Z,98564.36
2019-05-16T10:04:17.471Z,98563.67
2019-05-16T10:05:26.850Z,98565.02
2019-05-16T10:06:37.140Z,98560.83
2019-05-16T10:07:47.020Z,98560.97
2019-05-16T10:08:56.962Z,98563.33
2019-05-16T10:10:08.026Z,98552.78
2019-05-16T10:11:18.189Z,98560.84
2019-05-16T10:12:26.520Z,98549.59
2019-05-16T10:13:37.624Z,98552.44
2019-05-16T10:14:46.869Z,98547.25
2019-05-16T10:15:55.207Z,98546.09
2019-05-16T10:17:03.978Z,98556.65
2019-05-16T10:18:12.546Z,98550.80
2019-05-16T10:19:20.482Z,98549.78
2019-05-16T10:20:29.636Z,98549.11
2019-05-16T10:21:37.980Z,98551.12
2019-05-16T10:22:50.604Z,98548.59
2019-05-16T10:23:58.397Z,98555.13
2019-05-16T10:25:09.142Z,98551.42
2019-05-16T10:26:19.462Z,98549.75
2019-05-16T10:27:28.019Z,98549.75
2019-05-16T10:28:38.318Z,98550.09
2019-05-16T10:29:48.372Z,98542.54
2019-05-16T10:30:56.967Z,98546.89
2019-05-16T10:32:07.620Z,98542.03
2019-05-16T10:33:18.840Z,98540.34
2019-05-16T10:34:26.724Z,98544.72
2019-05-16T10:35:37.227Z,98546.55
2019-05-16T10:36:47.166Z,98550.26
2019-05-16T10:37:57.580Z,98552.08
2019-05-16T10:39:07.785Z,98541.69
2019-05-16T10:40:18.292Z,98543.03
2019-05-16T10:41:27.390Z,98542.39
2019-05-16T10:42:38.048Z,98539.18
2019-05-16T10:43:47.456Z,98550.43
2019-05-16T10:44:57.696Z,98545.12
2019-05-16T10:46:06.614Z,98544.74
2019-05-16T10:47:17.172Z,98544.59
2019-05-16T10:48:26.954Z,98548.38
2019-05-16T10:49:38.786Z,98543.45
2019-05-16T10:50:47.751Z,98538.69
2019-05-16T10:51:57.651Z,98545.66
2019-05-16T10:53:26.937Z,98545.37
2019-05-16T10:54:18.335Z,98539.53
2019-05-16T10:55:27.794Z,98541.56
2019-05-16T10:56:40.200Z,98543.95
2019-05-16T10:57:47.782Z,98543.33
2019-05-16T10:59:25.871Z,98537.28
2019-05-16T11:00:18.308Z,98542.69
2019-05-16T11:01:27.004Z,98543.52
2019-05-16T11:02:29.115Z,98539.97
2019-05-16T11:03:37.283Z,98543.34
2019-05-16T11:04:57.489Z,98534.09
2019-05-16T11:06:02.934Z,98535.27
2019-05-16T11:07:06.107Z,98533.56
2019-05-16T11:08:14.131Z,98535.35
2019-05-16T11:09:23.042Z,98537.86
2019-05-16T11:10:31.288Z,98534.47
2019-05-16T11:11:40.019Z,98536.47
2019-05-16T11:12:54.937Z,98532.44
2019-05-16T11:13:58.860Z,98532.91
2019-05-16T11:15:13.040Z,98533.78
2019-05-16T11:16:22.119Z,98530.77
2019-05-16T11:17:30.098Z,98533.14
2019-05-16T11:18:38.924Z,98535.68
2019-05-16T11:19:47.027Z,98533.03
2019-05-16T11:20:58.092Z,98532.40
2019-05-16T11:22:05.569Z,98532.60
2019-05-16T11:23:14.187Z,98531.26
2019-05-16T11:24:22.276Z,98537.64
2019-05-16T11:25:32.622Z,98532.13
2019-05-16T11:26:41.215Z,98529.58
2019-05-16T11:27:50.155Z,98528.91
2019-05-16T11:28:58.347Z,98522.84
2019-05-16T11:30:11.133Z,98521.98
2019-05-16T11:31:19.088Z,98521.73
2019-05-16T11:32:27.801Z,98524.52
2019-05-16T11:33:37.034Z,98524.33
2019-05-16T11:34:48.018Z,98518.39
2019-05-16T11:35:55.673Z,98516.05
2019-05-16T11:37:06.878Z,98519.46
2019-05-16T11:38:17.804Z,98517.14
2019-05-16T11:39:25.991Z,98510.94
2019-05-16T11:40:34.064Z,98506.09
2019-05-16T11:41:42.849Z,98505.84
2019-05-16T11:43:05.564Z,98504.48
2019-05-16T11:44:01.531Z,98505.41
2019-05-16T11:45:10.897Z,98500.73
2019-05-16T11:46:19.876Z,98505.38
2019-05-16T11:47:27.907Z,98500.44
2019-05-16T11:48:37.639Z,98499.75
2019-05-16T11:49:47.623Z,98503.25
2019-05-16T11:50:56.988Z,98502.87
2019-05-16T11:52:07.344Z,98499.11
2019-05-16T11:53:17.468Z,98504.80
2019-05-16T11:54:26.572Z,98508.10
2019-05-16T11:55:45.846Z,98505.33
2019-05-16T11:56:46.408Z,98512.36
2019-05-16T11:57:56.902Z,98506.45
2019-05-16T11:59:07.623Z,98505.01
2019-05-16T12:00:17.914Z,98506.58
2019-05-16T12:01:28.357Z,98498.58
2019-05-16T12:02:40.195Z,98502.64
2019-05-16T12:03:47.263Z,98495.58
2019-05-16T12:04:57.844Z,98492.69
2019-05-16T12:06:10.175Z,98497.17
2019-05-16T12:07:18.998Z,98494.34
2019-05-16T12:08:26.524Z,98488.47
2019-05-16T12:09:46.572Z,98486.27
2019-05-16T12:10:47.235Z,98487.91
2019-05-16T12:12:03.935Z,98483.85
2019-05-16T12:13:23.800Z,98492.61
2019-05-16T12:14:19.896Z,98489.31
2019-05-16T12:15:29.026Z,98491.37
2019-05-16T12:16:38.091Z,98494.08
2019-05-16T12:18:00.402Z,98496.09
2019-05-16T12:18:57.751Z,98495.88
2019-05-16T12:20:08.041Z,98491.02
2019-05-16T12:21:17.341Z,98492.78
2019-05-16T12:22:26.825Z,98491.92
2019-05-16T12:23:37.211Z,98491.25
2019-05-16T12:24:47.761Z,98504.83
2019-05-16T12:25:56.681Z,98497.38
2019-05-16T12:27:08.000Z,98497.30
2019-05-16T12:28:16.849Z,98499.47
2019-05-16T12:29:27.958Z,98495.83
2019-05-16T12:30:37.654Z,98492.41
2019-05-16T12:31:55.354Z,98496.39
2019-05-16T12:32:58.073Z,98491.58
2019-05-16T12:34:09.605Z,98497.22
2019-05-16T12:35:17.578Z,98490.20
2019-05-16T12:36:26.826Z,98492.28
2019-05-16T12:37:37.316Z,98491.95
2019-05-16T12:38:48.494Z,98483.17
2019-05-16T12:40:02.050Z,98483.02
2019-05-16T12:41:11.702Z,98483.39
2019-05-16T12:42:21.892Z,98482.19
2019-05-16T12:43:44.719Z,98482.42
2019-05-16T12:44:42.554Z,98484.63
2019-05-16T12:45:51.557Z,98477.59
2019-05-16T12:47:00.457Z,98481.04
2019-05-16T12:48:09.070Z,98485.30
2019-05-16T12:49:18.194Z,98486.80
2019-05-16T12:50:28.750Z,98489.77
2019-05-16T12:51:37.190Z,98486.28
2019-05-16T12:52:47.372Z,98478.22
2019-05-16T12:53:57.182Z,98476.09
2019-05-16T12:55:07.764Z,98473.09
2019-05-16T12:56:17.511Z,98473.14
2019-05-16T12:57:27.696Z,98467.36
2019-05-16T12:58:41.654Z,98466.95
2019-05-16T12:59:49.994Z,98465.59
2019-05-16T13:00:57.919Z,98466.07
2019-05-16T13:02:07.637Z,98467.55
2019-05-16T13:03:16.598Z,98465.06
2019-05-16T13:04:28.018Z,98468.41
2019-05-16T13:05:37.677Z,98462.28
2019-05-16T13:06:47.102Z,98472.06
2019-05-16T13:07:55.592Z,98466.72
2019-05-16T13:09:06.821Z,98472.72
2019-05-16T13:10:17.376Z,98469.70
2019-05-16T13:11:27.015Z,98472.13
2019-05-16T13:12:37.726Z,98465.10
2019-05-16T13:14:02.318Z,98462.41
2019-05-16T13:14:57.381Z,98462.57
2019-05-16T13:16:07.592Z,98466.48
2019-05-16T13:17:16.880Z,98468.77
2019-05-16T13:18:27.586Z,98465.12
2019-05-16T13:19:43.926Z,98466.06
2019-05-16T13:20:47.027Z,98464.50
2019-05-16T13:21:57.762Z,98467.55
2019-05-16T13:23:13.840Z,98459.95
2019-05-16T13:24:18.611Z,98457.15
2019-05-16T13:25:27.322Z,98447.88
2019-05-16T13:26:37.394Z,98452.87
2019-05-16T13:27:47.622Z,98451.95
2019-05-16T13:28:57.823Z,98454.52
2019-05-16T13:30:09.881Z,98449.02
2019-05-16T13:31:18.682Z,98457.44
2019-05-16T13:32:27.104Z,98451.16
2019-05-16T13:33:36.775Z,98456.22
2019-05-16T13:34:45.382Z,98451.27
2019-05-16T13:35:54.164Z,98451.98
2019-05-16T13:37:02.562Z,98459.00
2019-05-16T13:38:11.716Z,98451.41
2019-05-16T13:39:20.398Z,98446.78
2019-05-16T13:40:30.306Z,98450.97